createdAt,value
2023-02-09T00:02:46.732Z,67.77
2023-02-09T00:06:50.479Z,67.63
2023-02-09T00:10:53.452Z,67.78
2023-02-09T00:14:58.276Z,67.80
2023-02-09T00:19:01.265Z,67.72
2023-02-09T00:23:04.296Z,67.71
2023-02-09T00:27:07.266Z,67.83
2023-02-09T00:31:13.690Z,67.70
2023-02-09T00:35:17.267Z,67.58
2023-02-09T00:39:20.305Z,67.71
2023-02-09T00:43:23.305Z,67.85
2023-02-09T00:47:30.301Z,67.84
2023-02-09T00:51:33.452Z,67.74
2023-02-09T00:55:38.481Z,68.06
2023-02-09T00:59:42.830Z,67.88
2023-02-09T01:03:47.358Z,67.89
2023-02-09T01:07:50.948Z,67.95
2023-02-09T01:11:54.030Z,67.82
2023-02-09T01:15:57.064Z,67.90
2023-02-09T01:20:01.911Z,67.87
2023-02-09T01:24:05.338Z,68.11
2023-02-09T01:28:08.451Z,68.29
2023-02-09T01:32:11.648Z,68.63
2023-02-09T01:36:16.288Z,68.64
2023-02-09T01:40:19.318Z,68.57
2023-02-09T01:44:59.561Z,68.71
2023-02-09T01:49:09.418Z,68.61
2023-02-09T01:53:14.299Z,68.40
2023-02-09T01:57:23.737Z,68.32
2023-02-09T02:01:27.805Z,68.76
2023-02-09T02:05:32.873Z,69.36
2023-02-09T02:09:37.480Z,69.52
2023-02-09T02:13:40.635Z,69.75
2023-02-09T02:17:59.304Z,69.79
2023-02-09T02:22:43.428Z,69.92
2023-02-09T02:26:56.374Z,70.24
2023-02-09T02:31:29.715Z,70.08
2023-02-09T02:35:38.873Z,70.18
2023-02-09T02:39:51.078Z,70.41
2023-02-09T02:44:02.025Z,70.60
2023-02-09T02:48:14.391Z,70.62
2023-02-09T02:52:18.992Z,70.70
2023-02-09T02:56:26.022Z,70.81
2023-02-09T03:00:33.759Z,70.62
2023-02-09T03:04:40.198Z,70.82
2023-02-09T03:08:52.835Z,71.02
2023-02-09T03:13:09.293Z,71.00
2023-02-09T03:17:26.900Z,71.16
2023-02-09T03:21:42.776Z,71.46
2023-02-09T03:25:52.765Z,71.38
2023-02-09T03:29:59.182Z,71.45
2023-02-09T03:34:02.613Z,71.76
2023-02-09T03:38:07.125Z,71.58
2023-02-09T03:42:12.184Z,71.79
2023-02-09T03:46:15.199Z,71.45
2023-02-09T03:50:18.745Z,71.60
2023-02-09T03:54:22.677Z,71.67
2023-02-09T03:58:27.407Z,71.72
2023-02-09T04:02:30.814Z,71.75
2023-02-09T04:06:34.958Z,71.80
2023-02-09T04:10:37.964Z,71.85
2023-02-09T04:14:42.459Z,71.86
2023-02-09T04:18:45.998Z,71.84
2023-02-09T04:22:49.110Z,71.75
2023-02-09T04:26:52.065Z,71.81
2023-02-09T04:30:57.520Z,72.00
2023-02-09T04:35:00.542Z,72.04
2023-02-09T04:39:03.672Z,71.77
2023-02-09T04:43:07.304Z,72.05
2023-02-09T04:47:11.827Z,71.94
2023-02-09T04:51:14.984Z,71.93
2023-02-09T04:55:18.188Z,72.00
2023-02-09T04:59:35.984Z,72.00
2023-02-09T05:03:40.438Z,72.02
2023-02-09T05:07:43.433Z,72.11
2023-02-09T05:11:46.494Z,72.14
2023-02-09T05:15:49.679Z,72.32
2023-02-09T05:19:54.325Z,72.25
2023-02-09T05:23:57.278Z,72.03
2023-02-09T05:28:00.434Z,72.26
2023-02-09T05:32:03.655Z,72.66
2023-02-09T05:36:09.997Z,72.48
2023-02-09T05:40:13.960Z,72.57
2023-02-09T05:44:17.428Z,72.74
2023-02-09T05:48:20.402Z,72.88
2023-02-09T05:52:25.026Z,72.84
2023-02-09T05:56:28.037Z,73.10
2023-02-09T06:00:31.860Z,73.11
2023-02-09T06:04:36.107Z,73.08
2023-02-09T06:08:40.509Z,73.05
2023-02-09T06:12:43.510Z,73.18
2023-02-09T06:16:46.846Z,72.78
2023-02-09T06:20:49.813Z,73.09
2023-02-09T06:24:54.367Z,73.21
2023-02-09T06:28:57.341Z,73.19
2023-02-09T06:33:00.398Z,73.05
2023-02-09T06:37:03.434Z,73.24
2023-02-09T06:41:07.980Z,73.05
2023-02-09T06:45:11.617Z,73.12
2023-02-09T06:49:14.802Z,73.15
2023-02-09T06:53:18.724Z,73.06
2023-02-09T06:57:23.229Z,73.17
2023-02-09T07:01:26.272Z,73.27
2023-02-09T07:05:29.456Z,73.37
2023-02-09T07:09:32.438Z,73.31
2023-02-09T07:13:37.284Z,73.09
2023-02-09T07:17:40.764Z,73.40
2023-02-09T07:21:43.873Z,73.01
2023-02-09T07:25:46.844Z,73.04
2023-02-09T07:29:51.360Z,72.94
2023-02-09T07:33:55.750Z,73.03
2023-02-09T07:37:58.881Z,72.91
2023-02-09T07:42:02.119Z,73.13
2023-02-09T07:46:25.644Z,73.21
2023-02-09T07:50:28.708Z,73.00
2023-02-09T07:54:31.832Z,73.37
2023-02-09T07:58:34.880Z,73.05
2023-02-09T08:02:39.918Z,73.48
2023-02-09T08:06:46.147Z,73.42
2023-02-09T08:10:49.481Z,73.23
2023-02-09T08:14:52.469Z,73.47
2023-02-09T08:18:59.994Z,73.24
2023-02-09T08:23:08.331Z,73.55
2023-02-09T08:27:11.960Z,73.48
2023-02-09T08:31:17.401Z,73.57
2023-02-09T08:35:22.000Z,73.90
2023-02-09T08:39:25.040Z,73.83
2023-02-09T08:43:28.092Z,73.55
2023-02-09T08:47:31.228Z,73.42
2023-02-09T08:51:35.704Z,73.62
2023-02-09T08:55:39.427Z,73.45
2023-02-09T08:59:42.802Z,73.50
2023-02-09T09:03:45.779Z,73.33
2023-02-09T09:07:50.227Z,72.51
2023-02-09T09:11:53.318Z,71.92
2023-02-09T09:15:56.553Z,71.88
2023-02-09T09:20:00.657Z,71.10
2023-02-09T09:24:05.656Z,70.13
2023-02-09T09:28:09.837Z,69.94
2023-02-09T09:32:14.845Z,69.71
2023-02-09T09:36:17.919Z,69.43
2023-02-09T09:40:25.550Z,69.24
2023-02-09T09:44:33.502Z,68.58
2023-02-09T09:48:43.842Z,67.51
2023-02-09T09:52:50.730Z,67.08
2023-02-09T09:56:55.840Z,66.21
2023-02-09T10:00:59.201Z,65.78
2023-02-09T10:05:11.551Z,65.29
2023-02-09T10:09:27.142Z,65.34
2023-02-09T10:13:36.442Z,64.81
2023-02-09T10:17:39.377Z,63.92
2023-02-09T10:21:42.440Z,63.59
2023-02-09T10:26:04.524Z,63.89
2023-02-09T10:30:20.911Z,62.73
2023-02-09T10:34:31.904Z,62.53
2023-02-09T10:38:35.314Z,61.37
2023-02-09T10:42:41.994Z,60.76
2023-02-09T10:46:47.827Z,60.41
2023-02-09T10:50:53.209Z,60.03
2023-02-09T10:55:00.134Z,59.12
2023-02-09T10:59:15.158Z,58.74
2023-02-09T11:03:21.637Z,58.03
2023-02-09T11:07:31.174Z,58.43
2023-02-09T11:11:37.785Z,58.60
2023-02-09T11:15:46.332Z,56.90
2023-02-09T11:20:20.903Z,58.30
2023-02-09T11:24:38.965Z,57.31
2023-02-09T11:28:51.192Z,57.36
2023-02-09T11:32:59.055Z,57.67
2023-02-09T11:37:16.467Z,57.28
2023-02-09T11:41:47.228Z,56.33
2023-02-09T11:45:51.966Z,57.09
2023-02-09T11:49:59.075Z,56.98
2023-02-09T11:54:08.612Z,57.09
2023-02-09T11:58:26.148Z,56.19
2023-02-09T12:02:46.305Z,56.34
2023-02-09T12:06:51.995Z,54.66
2023-02-09T12:11:09.103Z,55.65
2023-02-09T12:15:16.446Z,54.81
2023-02-09T12:19:29.358Z,55.73
2023-02-09T12:23:33.731Z,55.17
2023-02-09T12:27:40.974Z,55.19
2023-02-09T12:32:14.275Z,53.82
2023-02-09T12:36:30.535Z,54.20
2023-02-09T12:40:37.528Z,54.61
2023-02-09T12:44:55.960Z,54.75
2023-02-09T12:49:21.025Z,54.52
2023-02-09T12:53:36.073Z,53.70
2023-02-09T12:57:54.460Z,53.65
2023-02-09T13:02:27.178Z,53.06
2023-02-09T13:06:40.434Z,53.52
2023-02-09T13:10:47.332Z,53.75
2023-02-09T13:14:52.072Z,53.67
2023-02-09T13:19:03.752Z,53.28
2023-02-09T13:23:20.631Z,53.41
2023-02-09T13:27:25.429Z,52.71
2023-02-09T13:31:35.335Z,53.42
2023-02-09T13:35:58.654Z,52.84
2023-02-09T13:40:03.395Z,52.11
2023-02-09T13:44:20.696Z,52.08
2023-02-09T13:48:25.224Z,53.41
2023-02-09T13:52:36.428Z,52.81
2023-02-09T13:56:42.844Z,52.99
2023-02-09T14:00:49.650Z,53.03
2023-02-09T14:04:57.318Z,52.34
2023-02-09T14:09:03.612Z,52.63
2023-02-09T14:13:18.359Z,52.50
2023-02-09T14:17:26.340Z,52.37
2023-02-09T14:21:34.258Z,52.36
2023-02-09T14:25:40.376Z,52.37
2023-02-09T14:29:47.851Z,52.39
2023-02-09T14:33:53.275Z,52.09
2023-02-09T14:37:58.101Z,52.49
2023-02-09T14:42:18.416Z,52.48
2023-02-09T14:46:21.736Z,52.36
2023-02-09T14:50:25.432Z,52.19
2023-02-09T14:54:30.585Z,52.85
2023-02-09T14:58:35.172Z,52.63
2023-02-09T15:02:38.349Z,52.84
2023-02-09T15:06:45.055Z,52.03
2023-02-09T15:10:53.382Z,52.34
2023-02-09T15:15:00.547Z,52.51
2023-02-09T15:19:05.409Z,52.44
2023-02-09T15:23:08.882Z,52.25
2023-02-09T15:27:16.628Z,52.32
2023-02-09T15:31:21.989Z,52.26
2023-02-09T15:35:27.346Z,52.50
2023-02-09T15:39:31.579Z,52.35
2023-02-09T15:43:51.866Z,52.64
2023-02-09T15:47:58.892Z,52.26
2023-02-09T15:52:02.048Z,52.51
2023-02-09T15:56:06.617Z,52.81
2023-02-09T16:00:17.325Z,52.93
2023-02-09T16:04:21.970Z,53.14
2023-02-09T16:08:27.068Z,53.27
2023-02-09T16:12:30.530Z,53.18
2023-02-09T16:16:33.811Z,53.11
2023-02-09T16:20:39.240Z,53.53
2023-02-09T16:24:45.934Z,53.79
2023-02-09T16:28:49.067Z,53.91
2023-02-09T16:32:53.297Z,53.83
2023-02-09T16:36:57.750Z,54.19
2023-02-09T16:41:00.745Z,54.08
2023-02-09T16:45:03.928Z,53.80
2023-02-09T16:49:06.994Z,54.50
2023-02-09T16:53:18.371Z,54.43
2023-02-09T16:57:23.460Z,54.28
2023-02-09T17:01:26.548Z,54.68
2023-02-09T17:05:32.038Z,54.61
2023-02-09T17:09:36.544Z,54.27
2023-02-09T17:13:39.577Z,54.49
2023-02-09T17:17:48.121Z,54.57
2023-02-09T17:21:51.107Z,54.49
2023-02-09T17:25:56.235Z,54.63
2023-02-09T17:29:59.200Z,54.78
2023-02-09T17:34:04.206Z,54.57
2023-02-09T17:38:07.781Z,54.94
2023-02-09T17:42:22.840Z,54.72
2023-02-09T17:46:25.890Z,54.90
2023-02-09T17:50:29.516Z,55.00
2023-02-09T17:54:33.964Z,54.99
2023-02-09T17:58:38.739Z,55.00
2023-02-09T18:02:41.896Z,54.95
2023-02-09T18:06:45.075Z,55.03
2023-02-09T18:10:48.228Z,54.62
2023-02-09T18:14:53.135Z,55.06
2023-02-09T18:18:56.142Z,54.82
2023-02-09T18:22:59.425Z,54.64
2023-02-09T18:27:02.904Z,54.88
2023-02-09T18:31:08.345Z,54.71
2023-02-09T18:35:18.102Z,54.86
2023-02-09T18:39:21.237Z,54.97
2023-02-09T18:43:24.213Z,54.93
2023-02-09T18:47:28.709Z,54.81
2023-02-09T18:51:32.508Z,54.67
2023-02-09T18:55:36.143Z,54.79
2023-02-09T18:59:40.332Z,54.63
2023-02-09T19:03:44.767Z,54.47
2023-02-09T19:07:47.933Z,54.67
2023-02-09T19:11:50.991Z,54.48
2023-02-09T19:15:54.066Z,54.38
2023-02-09T19:19:59.744Z,54.48
2023-02-09T19:24:02.885Z,54.40
2023-02-09T19:28:06.266Z,54.36
2023-02-09T19:32:09.406Z,54.67
2023-02-09T19:36:13.900Z,54.65
2023-02-09T19:40:21.517Z,54.67
2023-02-09T19:44:24.628Z,54.94
2023-02-09T19:48:27.612Z,55.04
2023-02-09T19:52:34.850Z,54.68
2023-02-09T19:56:38.465Z,54.69
2023-02-09T20:00:41.780Z,54.56
2023-02-09T20:04:45.959Z,54.46
2023-02-09T20:08:50.627Z,54.86
2023-02-09T20:12:53.636Z,54.84
2023-02-09T20:16:56.849Z,54.87
2023-02-09T20:20:59.802Z,54.83
2023-02-09T20:25:04.328Z,54.88
2023-02-09T20:29:07.407Z,54.70
2023-02-09T20:33:11.024Z,54.64
2023-02-09T20:37:14.049Z,54.43
2023-02-09T20:41:19.410Z,54.44
2023-02-09T20:45:39.773Z,54.32
2023-02-09T20:49:43.347Z,54.41
2023-02-09T20:53:49.788Z,54.31
2023-02-09T20:57:57.877Z,54.30
2023-02-09T21:02:14.273Z,54.10
2023-02-09T21:06:22.443Z,54.16
2023-02-09T21:10:31.593Z,54.03
2023-02-09T21:14:43.906Z,54.26
2023-02-09T21:18:46.898Z,54.44
2023-02-09T21:22:50.527Z,54.49
2023-02-09T21:26:53.523Z,54.54
2023-02-09T21:30:58.100Z,54.62
2023-02-09T21:35:01.041Z,54.64
2023-02-09T21:39:04.288Z,54.89
2023-02-09T21:43:07.234Z,55.22
2023-02-09T21:47:11.784Z,55.24
2023-02-09T21:51:14.748Z,55.31
2023-02-09T21:55:18.154Z,55.39
2023-02-09T21:59:21.300Z,55.49
2023-02-09T22:03:26.119Z,55.56
2023-02-09T22:07:29.629Z,55.67
2023-02-09T22:11:32.768Z,55.78
2023-02-09T22:15:35.746Z,55.87
2023-02-09T22:19:40.274Z,56.00
2023-02-09T22:23:43.448Z,56.06
2023-02-09T22:27:46.543Z,56.00
2023-02-09T22:31:49.528Z,56.20
2023-02-09T22:35:54.039Z,56.47
2023-02-09T22:39:57.216Z,56.47
2023-02-09T22:44:02.207Z,56.52
2023-02-09T22:48:05.628Z,56.50
2023-02-09T22:52:10.517Z,56.67
2023-02-09T22:56:13.901Z,56.91
2023-02-09T23:00:17.908Z,56.94
2023-02-09T23:04:21.242Z,56.80
2023-02-09T23:08:25.737Z,56.83
2023-02-09T23:12:28.710Z,57.13
2023-02-09T23:16:32.477Z,57.27
2023-02-09T23:20:35.441Z,57.15
2023-02-09T23:24:39.972Z,57.32
2023-02-09T23:28:43.272Z,57.37
2023-02-09T23:32:46.549Z,57.48
2023-02-09T23:36:49.778Z,57.51
2023-02-09T23:40:54.427Z,57.81
2023-02-09T23:44:57.514Z,57.96
2023-02-09T23:49:00.829Z,58.34
2023-02-09T23:53:03.964Z,58.60
2023-02-09T23:57:08.712Z,58.31
